Terminal Aerodrome Forecast
Issued by NWS Cleveland, OH

Home | Current Version | Previous Version | Graphics & Text | Print | Product List | Glossary On
Versions: 1 2 3 4 5 6 7 8 9 10 11 12 13 14 15 16 17 18 19 20 21 22 23 24 25 26 27 28 29 30
000
FTUS41 KCLE 161700
TAFCLE
TAF
KCLE 161736Z 1618/1724 22012G20KT 6SM -RA BR OVC012
      TEMPO 1618/1621 3SM -RA BR OVC008
     FM162100 23012G22KT 6SM BR VCSH OVC012
     FM170100 24012G22KT 6SM BR OVC008
     FM170700 25010G22KT P6SM OVC012
     FM171500 25014G25KT P6SM BKN015 OVC030=

USA.gov is the U.S. government's official web portal to all federal, state and local government web resources and services.